createdAt,value
2022-11-16T00:00:18.770Z,17.48
2022-11-16T00:02:46.123Z,18.25
2022-11-16T00:05:13.390Z,17.67
2022-11-16T00:07:40.659Z,17.10
2022-11-16T00:10:08.227Z,17.33
2022-11-16T00:12:35.530Z,17.88
2022-11-16T00:15:02.907Z,18.63
2022-11-16T00:17:30.258Z,17.48
2022-11-16T00:19:57.590Z,19.08
2022-11-16T00:22:24.824Z,19.35
2022-11-16T00:24:52.001Z,18.80
2022-11-16T00:27:19.322Z,17.50
2022-11-16T00:29:46.549Z,18.08
2022-11-16T00:32:13.754Z,18.83
2022-11-16T00:34:41.132Z,18.60
2022-11-16T00:37:08.314Z,19.17
2022-11-16T00:39:35.549Z,18.02
2022-11-16T00:42:02.830Z,17.73
2022-11-16T00:44:30.071Z,18.00
2022-11-16T00:46:57.297Z,18.83
2022-11-16T00:49:24.546Z,18.27
2022-11-16T00:51:51.718Z,18.45
2022-11-16T00:54:18.955Z,18.85
2022-11-16T00:56:46.293Z,18.45
2022-11-16T00:59:13.580Z,19.38
2022-11-16T01:01:40.927Z,19.17
2022-11-16T01:04:08.311Z,19.63
2022-11-16T01:06:35.479Z,20.00
2022-11-16T01:09:02.776Z,18.88
2022-11-16T01:11:48.846Z,18.60
2022-11-16T01:14:16.252Z,19.38
2022-11-16T01:16:43.484Z,18.92
2022-11-16T01:19:10.804Z,18.45
2022-11-16T01:21:37.980Z,19.58
2022-11-16T01:24:05.382Z,20.75
2022-11-16T01:26:32.618Z,19.08
2022-11-16T01:29:00.231Z,19.67
2022-11-16T01:31:27.434Z,20.65
2022-11-16T01:33:55.207Z,20.27
2022-11-16T01:36:22.368Z,18.77
2022-11-16T01:38:50.682Z,19.92
2022-11-16T01:41:23.491Z,19.63
2022-11-16T01:44:01.121Z,19.00
2022-11-16T01:46:28.994Z,18.65
2022-11-16T01:49:10.906Z,19.40
2022-11-16T01:51:38.841Z,20.88
2022-11-16T01:54:08.069Z,19.65
2022-11-16T01:56:36.870Z,19.50
2022-11-16T01:59:07.102Z,20.67
2022-11-16T02:01:34.498Z,21.00
2022-11-16T02:04:01.741Z,21.38
2022-11-16T02:06:29.040Z,20.02
2022-11-16T02:09:26.963Z,21.63
2022-11-16T02:11:54.324Z,19.02
2022-11-16T02:14:24.537Z,20.77
2022-11-16T02:17:04.099Z,20.10
2022-11-16T02:19:34.338Z,19.60
2022-11-16T02:22:08.719Z,22.10
2022-11-16T02:24:39.113Z,21.08
2022-11-16T02:27:09.128Z,20.83
2022-11-16T02:29:42.334Z,20.40
2022-11-16T02:32:18.603Z,20.05
2022-11-16T02:34:48.691Z,20.67
2022-11-16T02:37:18.425Z,20.27
2022-11-16T02:39:47.868Z,20.42
2022-11-16T02:42:18.207Z,20.15
2022-11-16T02:44:48.028Z,20.80
2022-11-16T02:47:19.062Z,20.92
2022-11-16T02:49:48.646Z,20.23
2022-11-16T02:52:16.592Z,20.90
2022-11-16T02:54:43.883Z,20.13
2022-11-16T02:57:11.017Z,21.75
2022-11-16T02:59:43.345Z,20.33
2022-11-16T03:02:25.120Z,20.65
2022-11-16T03:05:02.217Z,22.13
2022-11-16T03:07:32.898Z,22.42
2022-11-16T03:10:00.720Z,20.20
2022-11-16T03:12:32.621Z,21.65
2022-11-16T03:15:00.506Z,21.00
2022-11-16T03:17:54.105Z,22.23
2022-11-16T03:20:24.210Z,23.00
2022-11-16T03:22:54.533Z,22.55
2022-11-16T03:25:21.945Z,21.30
2022-11-16T03:28:01.514Z,20.88
2022-11-16T03:30:30.322Z,22.77
2022-11-16T03:33:15.129Z,22.20
2022-11-16T03:35:42.252Z,21.58
2022-11-16T03:38:10.614Z,22.05
2022-11-16T03:40:38.364Z,22.45
2022-11-16T03:43:07.315Z,22.15
2022-11-16T03:45:34.635Z,23.45
2022-11-16T03:48:02.002Z,21.88
2022-11-16T03:50:29.161Z,23.95
2022-11-16T03:52:56.312Z,24.83
2022-11-16T03:55:23.498Z,24.27
2022-11-16T03:57:50.653Z,25.58
2022-11-16T04:00:17.842Z,25.35
2022-11-16T04:02:45.069Z,25.42
2022-11-16T04:05:30.720Z,26.40
2022-11-16T04:08:16.939Z,26.52
2022-11-16T04:11:04.117Z,27.35
2022-11-16T04:13:51.153Z,28.00
2022-11-16T04:16:37.302Z,29.55
2022-11-16T04:19:23.301Z,28.95
2022-11-16T04:22:11.184Z,27.77
2022-11-16T04:24:39.765Z,27.83
2022-11-16T04:27:28.767Z,27.17
2022-11-16T04:29:57.888Z,27.27
2022-11-16T04:32:43.866Z,29.83
2022-11-16T04:35:29.875Z,29.27
2022-11-16T04:37:58.301Z,29.38
2022-11-16T04:40:29.482Z,26.92
2022-11-16T04:45:43.349Z,28.75
2022-11-16T04:48:11.134Z,28.40
2022-11-16T04:50:38.894Z,27.52
2022-11-16T04:53:06.767Z,28.13
2022-11-16T04:55:34.031Z,29.70
2022-11-16T04:58:01.716Z,26.17
2022-11-16T05:00:29.589Z,27.92
2022-11-16T05:03:01.200Z,27.67
2022-11-16T05:05:29.037Z,26.67
2022-11-16T05:07:56.364Z,25.92
2022-11-16T05:10:23.577Z,26.77
2022-11-16T05:12:50.708Z,24.13
2022-11-16T05:15:19.682Z,25.23
2022-11-16T05:17:47.439Z,24.67
2022-11-16T05:20:33.238Z,25.05
2022-11-16T05:23:00.478Z,23.60
2022-11-16T05:25:31.230Z,24.08
2022-11-16T05:28:01.181Z,24.48
2022-11-16T05:30:29.666Z,23.45
2022-11-16T05:32:56.842Z,23.48
2022-11-16T05:35:24.027Z,24.45
2022-11-16T05:37:51.168Z,23.67
2022-11-16T05:40:18.366Z,25.80
2022-11-16T05:42:45.551Z,26.10
2022-11-16T05:45:15.961Z,25.98
2022-11-16T05:47:45.803Z,25.10
2022-11-16T05:50:12.995Z,23.52
2022-11-16T05:52:40.179Z,22.98
2022-11-16T05:55:07.640Z,23.05
2022-11-16T05:57:34.784Z,21.58
2022-11-16T06:00:01.910Z,21.80
2022-11-16T06:02:29.109Z,22.42
2022-11-16T06:04:56.343Z,22.02
2022-11-16T06:07:23.573Z,22.40
2022-11-16T06:09:50.805Z,21.35
2022-11-16T06:12:17.934Z,22.15
2022-11-16T06:14:45.064Z,23.13
2022-11-16T06:17:14.652Z,21.70
2022-11-16T06:19:41.922Z,21.77
2022-11-16T06:22:09.051Z,20.70
2022-11-16T06:24:36.281Z,21.23
2022-11-16T06:27:03.423Z,21.63
2022-11-16T06:29:30.560Z,21.48
2022-11-16T06:31:57.748Z,21.52
2022-11-16T06:34:24.930Z,20.50
2022-11-16T06:36:52.048Z,21.42
2022-11-16T06:39:19.226Z,21.27
2022-11-16T06:41:46.372Z,21.08
2022-11-16T06:44:13.667Z,21.60
2022-11-16T06:46:40.839Z,20.15
2022-11-16T06:49:08.020Z,21.83
2022-11-16T06:51:35.248Z,22.27
2022-11-16T06:54:02.495Z,21.75
2022-11-16T06:56:29.807Z,21.92
2022-11-16T06:58:57.311Z,20.75
2022-11-16T07:01:24.549Z,21.60
2022-11-16T07:03:51.818Z,22.98
2022-11-16T07:06:19.035Z,23.98
2022-11-16T07:08:46.702Z,21.25
2022-11-16T07:11:13.875Z,23.15
2022-11-16T07:13:41.026Z,22.42
2022-11-16T07:16:09.092Z,22.38
2022-11-16T07:18:37.390Z,24.13
2022-11-16T07:21:08.119Z,22.15
2022-11-16T07:23:35.859Z,22.95
2022-11-16T07:26:03.903Z,22.08
2022-11-16T07:28:31.264Z,22.75
2022-11-16T07:31:02.724Z,22.15
2022-11-16T07:36:01.913Z,27.25
2022-11-16T07:38:29.197Z,23.38
2022-11-16T07:40:59.798Z,23.75
2022-11-16T07:43:26.977Z,28.42
2022-11-16T07:45:55.749Z,22.38
2022-11-16T07:48:25.187Z,19.92
2022-11-16T07:50:52.317Z,18.75
2022-11-16T07:53:19.594Z,18.65
2022-11-16T07:55:52.341Z,17.30
2022-11-16T07:58:19.476Z,16.83
2022-11-16T08:00:46.668Z,18.98
2022-11-16T08:03:13.804Z,17.77
2022-11-16T08:05:40.946Z,18.35
2022-11-16T08:08:08.181Z,16.75
2022-11-16T08:10:35.400Z,16.08
2022-11-16T08:13:02.638Z,16.77
2022-11-16T08:15:29.861Z,15.45
2022-11-16T08:18:00.147Z,16.05
2022-11-16T08:20:28.635Z,15.93
2022-11-16T08:22:59.511Z,16.42
2022-11-16T08:25:26.861Z,16.65
2022-11-16T08:27:54.013Z,17.73
2022-11-16T08:30:21.252Z,16.13
2022-11-16T08:32:48.440Z,13.68
2022-11-16T08:35:15.701Z,11.70
2022-11-16T08:37:42.897Z,10.90
2022-11-16T08:40:10.338Z,10.07
2022-11-16T08:42:43.263Z,10.32
2022-11-16T08:45:11.097Z,9.65
2022-11-16T08:47:38.281Z,10.13
2022-11-16T08:50:05.583Z,9.90
2022-11-16T08:52:32.821Z,9.35
2022-11-16T08:54:59.955Z,9.38
2022-11-16T08:57:27.087Z,8.68
2022-11-16T08:59:54.348Z,9.00
2022-11-16T09:02:25.438Z,9.18
2022-11-16T09:07:21.111Z,10.13
2022-11-16T09:09:48.768Z,11.50
2022-11-16T09:12:16.142Z,12.20
2022-11-16T09:14:43.398Z,10.63
2022-11-16T09:17:10.542Z,10.02
2022-11-16T09:19:37.790Z,10.48
2022-11-16T09:22:05.332Z,10.40
2022-11-16T09:24:32.496Z,10.30
2022-11-16T09:27:01.378Z,10.10
2022-11-16T09:29:28.838Z,9.52
2022-11-16T09:31:56.492Z,10.18
2022-11-16T09:34:23.610Z,11.55
2022-11-16T09:36:50.816Z,11.63
2022-11-16T09:39:33.524Z,11.60
2022-11-16T09:42:19.312Z,12.35
2022-11-16T09:44:49.448Z,11.70
2022-11-16T09:47:21.977Z,12.30
2022-11-16T09:49:58.228Z,12.35
2022-11-16T09:52:43.980Z,17.70
2022-11-16T09:55:29.581Z,13.18
2022-11-16T09:57:58.122Z,12.02
2022-11-16T10:00:25.435Z,14.80
2022-11-16T10:03:01.536Z,15.95
2022-11-16T10:05:36.906Z,14.90
2022-11-16T10:08:25.715Z,16.95
2022-11-16T10:11:12.952Z,13.65
2022-11-16T10:14:04.164Z,14.38
2022-11-16T10:16:37.767Z,15.20
2022-11-16T10:19:20.276Z,16.90
2022-11-16T10:22:05.415Z,16.77
2022-11-16T10:24:37.289Z,17.90
2022-11-16T10:27:10.298Z,16.75
2022-11-16T10:29:43.754Z,16.33
2022-11-16T10:32:28.243Z,13.55
2022-11-16T10:34:56.822Z,14.48
2022-11-16T10:37:29.340Z,14.77
2022-11-16T10:39:56.481Z,14.15
2022-11-16T10:42:31.651Z,13.15
2022-11-16T10:45:12.164Z,11.85
2022-11-16T10:47:52.201Z,13.23
2022-11-16T10:50:34.669Z,12.68
2022-11-16T10:53:01.991Z,11.77
2022-11-16T10:55:29.206Z,12.77
2022-11-16T10:57:59.456Z,12.75
2022-11-16T11:00:41.676Z,13.13
2022-11-16T11:03:10.822Z,11.82
2022-11-16T11:05:38.732Z,13.40
2022-11-16T11:08:07.762Z,17.33
2022-11-16T11:10:42.068Z,14.35
2022-11-16T11:13:12.060Z,14.95
2022-11-16T11:15:42.740Z,14.90
2022-11-16T11:18:16.194Z,16.90
2022-11-16T11:20:53.688Z,14.90
2022-11-16T11:23:22.594Z,15.00
2022-11-16T11:25:59.922Z,13.55
2022-11-16T11:28:33.134Z,12.07
2022-11-16T11:31:00.285Z,13.80
2022-11-16T11:33:29.324Z,18.50
2022-11-16T11:36:05.157Z,18.15
2022-11-16T11:38:32.945Z,18.48
2022-11-16T11:41:01.289Z,18.65
2022-11-16T11:43:29.631Z,19.35
2022-11-16T11:45:56.737Z,18.48
2022-11-16T11:48:37.161Z,17.25
2022-11-16T11:51:12.074Z,16.93
2022-11-16T11:53:47.842Z,14.88
2022-11-16T11:56:15.328Z,14.85
2022-11-16T11:58:43.320Z,17.80
2022-11-16T12:01:29.280Z,18.52
2022-11-16T12:04:16.708Z,20.05
2022-11-16T12:06:52.309Z,18.55
2022-11-16T12:09:28.785Z,18.10
2022-11-16T12:11:55.995Z,18.23
2022-11-16T12:14:31.460Z,18.35
2022-11-16T12:17:04.672Z,18.33
2022-11-16T12:19:34.821Z,16.02
2022-11-16T12:22:01.966Z,16.20
2022-11-16T12:24:32.241Z,12.75
2022-11-16T12:27:34.949Z,12.60
2022-11-16T12:30:08.530Z,10.77
2022-11-16T12:32:58.832Z,11.30
2022-11-16T12:35:29.114Z,10.75
2022-11-16T12:38:11.267Z,10.75
2022-11-16T12:40:45.053Z,11.25
2022-11-16T12:43:17.575Z,10.75
2022-11-16T12:46:03.485Z,12.65
2022-11-16T12:48:38.949Z,15.45
2022-11-16T12:51:21.554Z,18.00
2022-11-16T12:53:51.497Z,17.95
2022-11-16T12:56:25.278Z,17.73
2022-11-16T12:58:58.608Z,11.85
2022-11-16T13:01:34.006Z,12.52
2022-11-16T13:04:05.679Z,12.45
2022-11-16T13:06:36.036Z,12.35
2022-11-16T13:09:14.331Z,12.17
2022-11-16T13:11:44.491Z,12.55
2022-11-16T13:14:14.871Z,13.00
2022-11-16T13:16:42.419Z,12.57
2022-11-16T13:19:13.054Z,11.70
2022-11-16T13:21:59.955Z,12.30
2022-11-16T13:24:30.312Z,11.98
2022-11-16T13:27:17.377Z,12.33
2022-11-16T13:29:44.599Z,11.40
2022-11-16T13:32:18.439Z,14.98
2022-11-16T13:34:46.334Z,16.92
2022-11-16T13:37:32.034Z,14.00
2022-11-16T13:39:59.206Z,14.35
2022-11-16T13:42:26.726Z,14.88
2022-11-16T13:44:54.253Z,17.10
2022-11-16T13:47:30.512Z,15.70
2022-11-16T13:50:02.108Z,12.02
2022-11-16T13:53:36.450Z,11.38
2022-11-16T13:55:36.589Z,13.68
2022-11-16T13:58:05.258Z,13.00
2022-11-16T14:00:36.707Z,10.75
2022-11-16T14:03:13.042Z,11.38
2022-11-16T14:05:43.387Z,10.80
2022-11-16T14:08:19.623Z,11.60
2022-11-16T14:10:52.702Z,13.38
2022-11-16T14:13:48.431Z,11.73
2022-11-16T14:16:15.553Z,15.98
2022-11-16T14:18:43.547Z,13.68
2022-11-16T14:21:20.223Z,10.40
2022-11-16T14:24:06.307Z,11.68
2022-11-16T14:26:45.806Z,13.55
2022-11-16T14:29:20.534Z,13.05
2022-11-16T14:31:53.885Z,14.07
2022-11-16T14:34:22.997Z,13.30
2022-11-16T14:36:50.658Z,6.40
2022-11-16T14:39:24.258Z,6.97
2022-11-16T14:41:51.919Z,4.65
2022-11-16T14:44:21.704Z,6.68
2022-11-16T14:46:49.217Z,6.28
2022-11-16T14:49:18.692Z,6.10
2022-11-16T14:51:48.344Z,6.43
2022-11-16T14:54:19.223Z,10.88
2022-11-16T14:56:59.686Z,11.95
2022-11-16T14:59:27.112Z,6.90
2022-11-16T15:01:54.410Z,6.70
2022-11-16T15:04:22.709Z,5.35
2022-11-16T15:06:51.859Z,5.03
2022-11-16T15:09:23.051Z,5.68
2022-11-16T15:12:10.044Z,7.07
2022-11-16T15:14:53.858Z,5.47
2022-11-16T15:17:22.412Z,7.75
2022-11-16T15:19:55.811Z,9.48
2022-11-16T15:22:23.620Z,11.10
2022-11-16T15:24:57.971Z,13.63
2022-11-16T15:27:37.184Z,13.35
2022-11-16T15:30:20.859Z,13.00
2022-11-16T15:32:49.084Z,11.98
2022-11-16T15:35:19.157Z,14.40
2022-11-16T15:37:46.285Z,15.05
2022-11-16T15:40:13.993Z,8.73
2022-11-16T15:42:42.245Z,12.65
2022-11-16T15:45:22.394Z,13.70
2022-11-16T15:47:52.560Z,11.63
2022-11-16T15:50:20.530Z,13.82
2022-11-16T15:52:50.320Z,12.02
2022-11-16T15:55:25.258Z,6.18
2022-11-16T15:58:00.863Z,5.25
2022-11-16T16:00:29.864Z,5.22
2022-11-16T16:03:02.009Z,4.60
2022-11-16T16:05:39.505Z,5.35
2022-11-16T16:08:07.420Z,5.70
2022-11-16T16:10:34.657Z,7.00
2022-11-16T16:13:02.688Z,9.23
2022-11-16T16:15:34.956Z,10.88
2022-11-16T16:18:02.883Z,13.02
2022-11-16T16:20:33.986Z,9.88
2022-11-16T16:23:13.612Z,7.97
2022-11-16T16:25:42.063Z,5.57
2022-11-16T16:28:12.406Z,7.30
2022-11-16T16:30:39.718Z,11.07
2022-11-16T16:33:06.853Z,12.75
2022-11-16T16:35:33.974Z,14.18
2022-11-16T16:38:01.792Z,12.23
2022-11-16T16:40:29.471Z,12.27
2022-11-16T16:42:57.970Z,7.07
2022-11-16T16:45:30.229Z,4.18
2022-11-16T16:47:57.391Z,4.57
2022-11-16T16:50:24.520Z,2.85
2022-11-16T16:52:51.708Z,3.90
2022-11-16T16:55:18.824Z,3.53
2022-11-16T16:57:45.973Z,4.22
2022-11-16T17:00:13.385Z,3.95
2022-11-16T17:02:40.598Z,5.38
2022-11-16T17:05:07.924Z,3.10
2022-11-16T17:07:35.222Z,2.72
2022-11-16T17:10:02.485Z,2.78
2022-11-16T17:12:29.677Z,2.80
2022-11-16T17:14:56.926Z,2.63
2022-11-16T17:17:27.231Z,2.65
2022-11-16T17:19:54.405Z,2.47
2022-11-16T17:22:21.591Z,2.55
2022-11-16T17:24:48.749Z,2.05
2022-11-16T17:27:15.883Z,2.83
2022-11-16T17:29:43.122Z,3.05
2022-11-16T17:32:10.256Z,3.20
2022-11-16T17:34:39.914Z,3.38
2022-11-16T17:37:07.143Z,3.20
2022-11-16T17:39:34.477Z,3.42
2022-11-16T17:42:01.624Z,3.40
2022-11-16T17:44:28.845Z,2.88
2022-11-16T17:46:55.976Z,2.30
2022-11-16T17:49:23.112Z,2.83
2022-11-16T17:51:50.327Z,2.72
2022-11-16T17:54:17.463Z,2.92
2022-11-16T17:56:44.585Z,3.22
2022-11-16T17:59:11.892Z,3.38
2022-11-16T18:01:39.408Z,3.55
2022-11-16T18:04:06.615Z,3.45
2022-11-16T18:06:35.427Z,3.42
2022-11-16T18:09:02.678Z,5.43
2022-11-16T18:11:29.900Z,3.47
2022-11-16T18:14:00.818Z,4.28
2022-11-16T18:16:29.257Z,4.82
2022-11-16T18:19:00.941Z,4.32
2022-11-16T18:21:28.126Z,3.80
2022-11-16T18:23:55.667Z,3.95
2022-11-16T18:26:24.250Z,4.03
2022-11-16T18:28:52.286Z,4.43
2022-11-16T18:31:22.677Z,4.72
2022-11-16T18:33:50.225Z,4.27
2022-11-16T18:36:17.865Z,4.45
2022-11-16T18:38:45.194Z,3.92
2022-11-16T18:41:12.364Z,4.28
2022-11-16T18:43:50.326Z,4.20
2022-11-16T18:46:18.858Z,4.70
2022-11-16T18:48:46.811Z,4.72
2022-11-16T18:51:14.865Z,4.28
2022-11-16T18:53:42.423Z,4.78
2022-11-16T18:56:11.368Z,4.78
2022-11-16T18:58:54.369Z,3.90
2022-11-16T19:01:25.823Z,4.45
2022-11-16T19:03:53.839Z,4.13
2022-11-16T19:06:21.485Z,4.38
2022-11-16T19:08:55.295Z,4.53
2022-11-16T19:11:23.756Z,4.47
2022-11-16T19:13:55.235Z,5.18
2022-11-16T19:16:22.854Z,4.60
2022-11-16T19:18:50.061Z,4.13
2022-11-16T19:21:18.681Z,4.43
2022-11-16T19:23:47.202Z,3.90
2022-11-16T19:26:15.095Z,3.97
2022-11-16T19:28:46.697Z,4.10
2022-11-16T19:31:15.496Z,4.13
2022-11-16T19:33:42.668Z,4.38
2022-11-16T19:36:11.062Z,3.40
2022-11-16T19:38:38.811Z,3.30
2022-11-16T19:41:06.646Z,3.85
2022-11-16T19:43:34.747Z,3.88
2022-11-16T19:46:03.587Z,4.10
2022-11-16T19:48:32.012Z,3.72
2022-11-16T19:51:09.173Z,4.10
2022-11-16T19:53:37.141Z,3.55
2022-11-16T19:56:05.147Z,3.83
2022-11-16T19:58:33.048Z,3.72
2022-11-16T20:01:04.077Z,3.72
2022-11-16T20:03:31.730Z,3.80
2022-11-16T20:06:06.531Z,4.00
2022-11-16T20:08:33.719Z,4.07
2022-11-16T20:11:01.054Z,3.38
2022-11-16T20:13:28.332Z,3.80
2022-11-16T20:15:55.492Z,3.88
2022-11-16T20:18:22.646Z,3.95
2022-11-16T20:20:49.870Z,4.60
2022-11-16T20:23:19.367Z,4.00
2022-11-16T20:25:46.550Z,4.20
2022-11-16T20:28:13.763Z,4.10
2022-11-16T20:30:45.644Z,4.68
2022-11-16T20:33:14.328Z,4.45
2022-11-16T20:35:41.925Z,4.43
2022-11-16T20:38:09.099Z,4.53
2022-11-16T20:40:36.316Z,4.43
2022-11-16T20:43:03.509Z,4.60
2022-11-16T20:45:32.857Z,4.32
2022-11-16T20:48:00.404Z,4.57
2022-11-16T20:50:27.592Z,4.38
2022-11-16T20:52:54.728Z,5.00
2022-11-16T20:55:21.925Z,5.30
2022-11-16T20:57:49.060Z,5.18
2022-11-16T21:00:16.622Z,4.95
2022-11-16T21:02:43.891Z,4.95
2022-11-16T21:05:11.041Z,5.00
2022-11-16T21:07:38.229Z,3.90
2022-11-16T21:10:20.785Z,4.90
2022-11-16T21:13:06.414Z,5.25
2022-11-16T21:15:33.600Z,4.32
2022-11-16T21:18:00.824Z,5.15
2022-11-16T21:20:28.723Z,5.10
2022-11-16T21:22:56.119Z,5.07
2022-11-16T21:25:23.252Z,5.10
2022-11-16T21:27:50.596Z,4.35
2022-11-16T21:30:17.854Z,4.72
2022-11-16T21:32:45.021Z,4.75
2022-11-16T21:35:12.758Z,4.70
2022-11-16T21:37:39.983Z,4.47
2022-11-16T21:40:07.423Z,5.10
2022-11-16T21:42:34.590Z,5.28
2022-11-16T21:45:01.779Z,5.53
2022-11-16T21:47:29.180Z,5.50
2022-11-16T21:50:24.873Z,4.63
2022-11-16T21:52:43.525Z,4.88
2022-11-16T21:55:10.668Z,5.35
2022-11-16T21:57:37.847Z,5.32
2022-11-16T22:00:05.350Z,5.57
2022-11-16T22:02:32.558Z,5.70
2022-11-16T22:05:18.281Z,4.97
2022-11-16T22:07:45.497Z,5.20
2022-11-16T22:10:13.441Z,5.10
2022-11-16T22:12:40.642Z,5.80
2022-11-16T22:15:08.040Z,5.38
2022-11-16T22:17:35.318Z,4.78
2022-11-16T22:20:02.594Z,5.30
2022-11-16T22:22:29.725Z,4.40
2022-11-16T22:24:56.927Z,4.65
2022-11-16T22:27:24.162Z,5.28
2022-11-16T22:29:51.309Z,4.88
2022-11-16T22:32:18.440Z,4.40
2022-11-16T22:34:45.647Z,4.55
2022-11-16T22:37:12.781Z,3.80
2022-11-16T22:39:39.961Z,4.90
2022-11-16T22:42:07.294Z,4.20
2022-11-16T22:44:34.421Z,4.10
2022-11-16T22:47:01.555Z,3.95
2022-11-16T22:49:28.752Z,4.28
2022-11-16T22:51:55.903Z,4.60
2022-11-16T22:54:28.359Z,4.22
2022-11-16T22:56:55.889Z,4.35
2022-11-16T22:59:23.005Z,3.85
2022-11-16T23:01:50.155Z,3.63
2022-11-16T23:04:17.373Z,3.75
2022-11-16T23:06:44.525Z,3.67
2022-11-16T23:09:11.655Z,3.47
2022-11-16T23:11:57.707Z,4.53
2022-11-16T23:14:43.546Z,3.50
2022-11-16T23:17:10.715Z,3.92
2022-11-16T23:19:56.437Z,3.72
2022-11-16T23:22:42.420Z,3.45
2022-11-16T23:25:30.403Z,3.80
2022-11-16T23:28:07.558Z,3.80
2022-11-16T23:30:35.383Z,4.15
2022-11-16T23:33:03.013Z,4.13
2022-11-16T23:35:30.320Z,4.00
2022-11-16T23:37:57.488Z,4.75
2022-11-16T23:40:26.151Z,4.68
2022-11-16T23:43:12.631Z,4.30
2022-11-16T23:45:40.129Z,4.55
2022-11-16T23:48:08.536Z,4.50
2022-11-16T23:50:36.162Z,2.72
2022-11-16T23:53:03.305Z,4.60
2022-11-16T23:55:32.325Z,3.88
2022-11-16T23:57:59.965Z,4.90
